Time;durP1;ratioP1;P1;durP2;ratioP2;P2;SDS_P1;SDS_P2;PMS_P1;PMS_P2;Temp;Humidity;BMP_temperature;BMP_pressure;BME280_temperature;BME280_humidity;BME280_pressure;Samples;Min_cycle;Max_cycle;Signal;HPM_P1;HPM_P2
2020/10/07 00:00:46;;;;;;;;;20.25;18.25;;;;;;;;3724912;37;20934;-54
2020/10/07 00:03:13;;;;;;;;;21.00;20.25;;;;;;;;3724856;38;17938;-54
2020/10/07 00:05:46;;;;;;;;;19.75;17.00;;;;;;;;3725155;37;20957;-55
2020/10/07 00:08:12;;;;;;;;;19.00;18.50;;;;;;;;3725371;37;20989;-56
2020/10/07 00:10:39;;;;;;;;;19.75;18.75;;;;;;;;3725524;38;20968;-56
2020/10/07 00:13:06;;;;;;;;;18.75;18.00;;;;;;;;3725514;38;20972;-55
2020/10/07 00:15:32;;;;;;;;;20.50;18.50;;;;;;;;3725574;38;20927;-55
2020/10/07 00:18:00;;;;;;;;;20.00;18.00;;;;;;;;3725277;37;20962;-56
2020/10/07 00:20:26;;;;;;;;;22.50;20.25;;;;;;;;3725320;37;20958;-55
2020/10/07 00:22:52;;;;;;;;;21.50;20.00;;;;;;;;3725545;38;20945;-54
2020/10/07 00:25:23;;;;;;;;;18.75;17.50;;;;;;;;3725448;38;17922;-54
2020/10/07 00:27:58;;;;;;;;;22.00;20.50;;;;;;;;3725343;37;20930;-54
2020/10/07 00:30:24;;;;;;;;;18.25;17.75;;;;;;;;3725261;37;20930;-54
2020/10/07 00:32:50;;;;;;;;;18.75;17.00;;;;;;;;3725278;37;20929;-55
2020/10/07 00:35:20;;;;;;;;;18.25;17.75;;;;;;;;3725144;37;20916;-54
2020/10/07 00:37:47;;;;;;;;;17.50;17.00;;;;;;;;3725352;38;20935;-55
2020/10/07 00:40:32;;;;;;;;;16.00;15.00;;;;;;;;3725161;37;20922;-54
2020/10/07 00:42:58;;;;;;;;;18.50;18.00;;;;;;;;3725279;37;20933;-54
2020/10/07 00:45:31;;;;;;;;;18.75;17.50;;;;;;;;3725210;37;20897;-54
2020/10/07 00:47:58;;;;;;;;;21.25;18.50;;;;;;;;3725418;37;20927;-54
2020/10/07 00:50:24;;;;;;;;;18.00;17.00;;;;;;;;3725227;38;20897;-53
2020/10/07 00:52:51;;;;;;;;;20.00;19.25;;;;;;;;3725451;37;17868;-54
2020/10/07 00:55:21;;;;;;;;;20.75;19.75;;;;;;;;3725224;38;20901;-54
2020/10/07 00:57:47;;;;;;;;;18.00;17.00;;;;;;;;3725325;37;20881;-54
2020/10/07 01:00:45;;;;;;;;;20.75;18.50;;;;;;;;3725266;38;20879;-55
2020/10/07 01:03:18;;;;;;;;;19.75;18.75;;;;;;;;3725344;37;20887;-54
2020/10/07 01:05:44;;;;;;;;;13.50;13.50;;;;;;;;3725218;38;20920;-54
2020/10/07 01:08:13;;;;;;;;;16.75;16.00;;;;;;;;3725368;38;20869;-54
2020/10/07 01:10:43;;;;;;;;;17.75;15.00;;;;;;;;3725048;37;20880;-55
2020/10/07 01:13:09;;;;;;;;;22.25;19.25;;;;;;;;3725493;37;20898;-54
2020/10/07 01:15:35;;;;;;;;;19.75;18.00;;;;;;;;3725231;37;20888;-56
2020/10/07 01:18:02;;;;;;;;;18.50;17.75;;;;;;;;3725493;37;17841;-59
2020/10/07 01:20:48;;;;;;;;;22.50;19.25;;;;;;;;3725250;37;20865;-57
2020/10/07 01:23:14;;;;;;;;;18.50;17.50;;;;;;;;3725540;37;20870;-60
2020/10/07 01:25:41;;;;;;;;;19.50;18.00;;;;;;;;3725164;37;20849;-59
2020/10/07 01:28:08;;;;;;;;;21.25;18.00;;;;;;;;3725180;37;20909;-59
2020/10/07 01:30:35;;;;;;;;;17.00;16.00;;;;;;;;3725255;37;20900;-58
2020/10/07 01:33:30;;;;;;;;;16.25;15.00;;;;;;;;3725365;37;20863;-57
2020/10/07 01:36:16;;;;;;;;;19.25;17.00;;;;;;;;3725256;38;20863;-57
2020/10/07 01:39:03;;;;;;;;;23.50;19.00;;;;;;;;3725136;37;20879;-57
2020/10/07 01:42:06;;;;;;;;;19.50;18.75;;;;;;;;3725569;38;20903;-53
2020/10/07 01:44:53;;;;;;;;;18.75;17.25;;;;;;;;3736687;38;20851;-57
2020/10/07 01:47:34;;;;;;;;;18.00;17.25;;;;;;;;3726013;37;20838;-60
2020/10/07 01:50:23;;;;;;;;;19.25;18.00;;;;;;;;3725353;38;20845;-59
2020/10/07 01:52:49;;;;;;;;;16.25;15.00;;;;;;;;3725260;37;20862;-59
2020/10/07 01:55:43;;;;;;;;;19.75;18.00;;;;;;;;3725232;37;20862;-57
2020/10/07 01:58:47;;;;;;;;;18.00;16.50;;;;;;;;3725429;37;20818;-58
2020/10/07 02:01:41;;;;;;;;;18.00;16.75;;;;;;;;3725287;37;20877;-59
2020/10/07 02:04:26;;;;;;;;;19.25;18.50;;;;;;;;3725145;38;20845;-57
2020/10/07 02:06:54;;;;;;;;;25.50;21.00;;;;;;;;3725416;37;20852;-57
2020/10/07 02:09:48;;;;;;;;;19.00;17.25;;;;;;;;3725337;38;20824;-58
2020/10/07 02:12:40;;;;;;;;;17.25;17.00;;;;;;;;3725253;38;20822;-57
2020/10/07 02:15:24;;;;;;;;;24.75;20.00;;;;;;;;3725391;38;20812;-57
2020/10/07 02:17:57;;;;;;;;;21.00;19.00;;;;;;;;3725461;38;20810;-58
2020/10/07 02:20:23;;;;;;;;;14.75;13.75;;;;;;;;3725316;37;20805;-57
2020/10/07 02:22:50;;;;;;;;;19.00;18.50;;;;;;;;3725032;37;20801;-58
2020/10/07 02:25:16;;;;;;;;;18.75;17.50;;;;;;;;3725212;38;20778;-57
2020/10/07 02:27:42;;;;;;;;;19.00;18.00;;;;;;;;3725226;37;20829;-58
2020/10/07 02:30:10;;;;;;;;;19.00;18.50;;;;;;;;3725286;38;20768;-58
2020/10/07 02:35:24;;;;;;;;;21.00;18.25;;;;;;;;3725351;38;20737;-57
2020/10/07 02:37:51;;;;;;;;;13.00;13.00;;;;;;;;3725354;37;20802;-56
2020/10/07 02:40:52;;;;;;;;;18.00;17.25;;;;;;;;3725345;38;20775;-57
2020/10/07 02:43:19;;;;;;;;;18.00;16.50;;;;;;;;3725271;38;20785;-59
2020/10/07 02:45:48;;;;;;;;;16.75;16.00;;;;;;;;3725324;38;20764;-57
2020/10/07 02:48:15;;;;;;;;;19.50;17.75;;;;;;;;3725394;38;20938;-56
2020/10/07 02:50:42;;;;;;;;;21.25;19.00;;;;;;;;3725368;37;20739;-58
2020/10/07 02:53:31;;;;;;;;;21.50;19.00;;;;;;;;3725446;37;20740;-57
2020/10/07 02:55:57;;;;;;;;;20.75;19.75;;;;;;;;3725316;37;20731;-56
2020/10/07 02:58:27;;;;;;;;;21.75;20.50;;;;;;;;3725463;38;20755;-57
2020/10/07 03:01:00;;;;;;;;;18.00;16.25;;;;;;;;3725548;38;20759;-54
2020/10/07 03:03:26;;;;;;;;;19.25;18.25;;;;;;;;3725746;38;20747;-55
2020/10/07 03:05:53;;;;;;;;;19.00;18.25;;;;;;;;3725413;37;20734;-53
2020/10/07 03:08:20;;;;;;;;;20.00;19.00;;;;;;;;3725338;37;20732;-54
2020/10/07 03:11:09;;;;;;;;;19.50;19.25;;;;;;;;3725261;37;20748;-53
2020/10/07 03:13:37;;;;;;;;;18.25;17.50;;;;;;;;3725250;38;20740;-55
2020/10/07 03:16:03;;;;;;;;;15.75;15.75;;;;;;;;3724959;38;20761;-54
2020/10/07 03:18:31;;;;;;;;;11.25;10.75;;;;;;;;3725309;37;20718;-54
2020/10/07 03:21:02;;;;;;;;;20.25;19.00;;;;;;;;3724954;38;20577;-53
2020/10/07 03:23:28;;;;;;;;;19.50;17.25;;;;;;;;3725221;37;20693;-53
2020/10/07 03:25:57;;;;;;;;;19.75;18.00;;;;;;;;3725322;37;20687;-54
2020/10/07 03:28:24;;;;;;;;;19.75;16.75;;;;;;;;3725447;38;20709;-54
2020/10/07 03:30:51;;;;;;;;;17.00;17.00;;;;;;;;3725348;37;20702;-55
2020/10/07 03:33:17;;;;;;;;;18.00;18.00;;;;;;;;3725120;38;20690;-53
2020/10/07 03:35:44;;;;;;;;;21.00;18.75;;;;;;;;3725291;37;20676;-55
2020/10/07 03:38:11;;;;;;;;;17.50;16.50;;;;;;;;3725376;37;20693;-54
2020/10/07 03:41:00;;;;;;;;;17.75;17.25;;;;;;;;3725415;37;20686;-54
2020/10/07 03:43:26;;;;;;;;;16.25;15.75;;;;;;;;3725522;37;20691;-54
2020/10/07 03:46:27;;;;;;;;;20.00;18.00;;;;;;;;3724977;37;20655;-54
2020/10/07 03:48:54;;;;;;;;;20.00;18.25;;;;;;;;3725476;38;17688;-54
2020/10/07 03:51:32;;;;;;;;;17.25;16.00;;;;;;;;3725484;38;20666;-55
2020/10/07 03:53:58;;;;;;;;;19.00;16.75;;;;;;;;3725463;38;20668;-54
2020/10/07 03:56:25;;;;;;;;;17.75;16.25;;;;;;;;3725219;38;20707;-54
2020/10/07 03:58:53;;;;;;;;;16.00;15.00;;;;;;;;3725328;37;20707;-55
2020/10/07 04:02:12;;;;;;;;;17.00;17.00;;;;;;;;3727382;38;21638;-54
2020/10/07 04:04:29;;;;;;;;;19.25;17.25;;;;;;;;3726342;38;20662;-55
2020/10/07 04:07:25;;;;;;;;;17.25;16.00;;;;;;;;3725229;38;21635;-55
2020/10/07 04:09:51;;;;;;;;;18.00;18.00;;;;;;;;3725160;37;21654;-54
2020/10/07 04:12:18;;;;;;;;;17.00;17.00;;;;;;;;3725178;37;21652;-54
2020/10/07 04:14:45;;;;;;;;;16.50;15.25;;;;;;;;3725363;38;21633;-55
2020/10/07 04:17:14;;;;;;;;;19.25;18.25;;;;;;;;3725042;38;21657;-55
2020/10/07 04:19:40;;;;;;;;;19.25;15.50;;;;;;;;3724865;37;21682;-54
2020/10/07 04:22:07;;;;;;;;;20.50;19.50;;;;;;;;3725301;38;21637;-55
2020/10/07 04:24:51;;;;;;;;;21.00;16.75;;;;;;;;3725302;37;21615;-54
2020/10/07 04:27:23;;;;;;;;;19.00;16.75;;;;;;;;3725449;37;21665;-55
2020/10/07 04:29:58;;;;;;;;;18.25;16.25;;;;;;;;3725270;37;21622;-54
2020/10/07 04:32:25;;;;;;;;;17.25;17.00;;;;;;;;3725336;38;21590;-55
2020/10/07 04:34:53;;;;;;;;;18.50;17.25;;;;;;;;3725320;37;21595;-54
2020/10/07 04:37:19;;;;;;;;;19.25;18.50;;;;;;;;3725484;38;21620;-54
2020/10/07 04:42:30;;;;;;;;;17.50;13.00;;;;;;;;3725473;38;21566;-54
2020/10/07 04:44:56;;;;;;;;;19.00;16.25;;;;;;;;3725140;37;21614;-53
2020/10/07 04:47:24;;;;;;;;;17.00;15.75;;;;;;;;3725350;38;21586;-54
2020/10/07 04:49:53;;;;;;;;;17.50;16.00;;;;;;;;3725280;38;21608;-54
2020/10/07 04:52:23;;;;;;;;;17.75;17.25;;;;;;;;3725346;37;21612;-55
2020/10/07 04:54:51;;;;;;;;;20.75;18.50;;;;;;;;3725264;37;21616;-55
2020/10/07 04:57:19;;;;;;;;;14.00;12.50;;;;;;;;3725248;37;21567;-57
2020/10/07 04:59:46;;;;;;;;;21.25;18.00;;;;;;;;3725280;37;21548;-55
2020/10/07 05:02:12;;;;;;;;;18.50;16.00;;;;;;;;3725304;37;21568;-55
2020/10/07 05:04:38;;;;;;;;;15.75;15.75;;;;;;;;3725213;37;21522;-55
2020/10/07 05:07:06;;;;;;;;;19.50;18.00;;;;;;;;3725324;37;18565;-55
2020/10/07 05:09:33;;;;;;;;;19.50;17.75;;;;;;;;3725256;38;21564;-55
2020/10/07 05:11:59;;;;;;;;;16.00;14.00;;;;;;;;3725224;38;21572;-55
2020/10/07 05:14:27;;;;;;;;;18.00;17.25;;;;;;;;3725349;38;21538;-55
2020/10/07 05:16:54;;;;;;;;;18.00;17.25;;;;;;;;3725316;38;21575;-55
2020/10/07 05:19:20;;;;;;;;;17.25;15.75;;;;;;;;3725380;37;21554;-55
2020/10/07 05:21:47;;;;;;;;;21.25;19.00;;;;;;;;3725342;38;21570;-55
2020/10/07 05:24:13;;;;;;;;;18.25;14.25;;;;;;;;3725312;37;21574;-55
2020/10/07 05:26:45;;;;;;;;;19.25;18.00;;;;;;;;3725347;37;21545;-54
2020/10/07 05:29:12;;;;;;;;;16.50;15.00;;;;;;;;3725405;38;18493;-55
2020/10/07 05:31:38;;;;;;;;;15.50;15.25;;;;;;;;3725331;38;21553;-55
2020/10/07 05:34:05;;;;;;;;;19.25;18.00;;;;;;;;3725181;38;21548;-54
2020/10/07 05:36:41;;;;;;;;;17.75;17.25;;;;;;;;3725259;38;21508;-54
2020/10/07 05:39:26;;;;;;;;;15.00;14.00;;;;;;;;3725702;37;21528;-54
2020/10/07 05:41:52;;;;;;;;;19.00;17.00;;;;;;;;3725399;38;21488;-54
2020/10/07 05:44:51;;;;;;;;;18.25;17.00;;;;;;;;3725515;38;21497;-55
2020/10/07 05:47:40;;;;;;;;;20.00;17.00;;;;;;;;3725374;37;21591;-56
2020/10/07 05:50:26;;;;;;;;;20.25;17.25;;;;;;;;3725266;38;21526;-55
2020/10/07 05:53:11;;;;;;;;;21.00;18.25;;;;;;;;3725309;37;21491;-55
2020/10/07 05:55:47;;;;;;;;;17.00;16.50;;;;;;;;3724909;37;21463;-55
2020/10/07 05:58:14;;;;;;;;;18.25;16.50;;;;;;;;3725221;38;21548;-55
2020/10/07 06:00:43;;;;;;;;;16.75;15.25;;;;;;;;3725328;37;21491;-53
2020/10/07 06:03:12;;;;;;;;;19.25;18.00;;;;;;;;3725264;38;21532;-55
2020/10/07 06:05:39;;;;;;;;;19.00;18.50;;;;;;;;3725288;37;21466;-54
2020/10/07 06:08:14;;;;;;;;;17.75;16.75;;;;;;;;3725453;38;21420;-55
2020/10/07 06:10:47;;;;;;;;;18.50;16.75;;;;;;;;3725371;38;18454;-56
2020/10/07 06:13:13;;;;;;;;;20.00;18.00;;;;;;;;3725355;37;21468;-55
2020/10/07 06:15:41;;;;;;;;;20.00;16.00;;;;;;;;3725247;37;21450;-56
2020/10/07 06:18:07;;;;;;;;;19.00;15.75;;;;;;;;3725286;38;21464;-51
2020/10/07 06:20:34;;;;;;;;;18.50;18.25;;;;;;;;3726087;37;21481;-56
2020/10/07 06:23:04;;;;;;;;;18.75;16.50;;;;;;;;3725592;37;21494;-60
2020/10/07 06:25:39;;;;;;;;;21.00;17.50;;;;;;;;3725393;37;21493;-57
2020/10/07 06:28:15;;;;;;;;;21.75;19.00;;;;;;;;3724653;38;21403;-57
2020/10/07 06:30:41;;;;;;;;;20.50;18.50;;;;;;;;3725166;38;21453;-54
2020/10/07 06:33:07;;;;;;;;;20.50;16.25;;;;;;;;3724891;38;21505;-55
2020/10/07 06:35:33;;;;;;;;;23.75;20.75;;;;;;;;3725411;37;18422;-55
2020/10/07 06:38:00;;;;;;;;;23.75;18.50;;;;;;;;3725022;38;21493;-55
2020/10/07 06:40:28;;;;;;;;;22.50;18.50;;;;;;;;3725350;37;18391;-57
2020/10/07 06:42:58;;;;;;;;;19.50;16.50;;;;;;;;3725277;37;21484;-56
2020/10/07 06:45:25;;;;;;;;;25.25;20.50;;;;;;;;3725204;37;21419;-55
2020/10/07 06:47:54;;;;;;;;;26.50;18.75;;;;;;;;3725292;37;21450;-55
2020/10/07 06:50:20;;;;;;;;;17.50;17.00;;;;;;;;3725253;38;21460;-56
2020/10/07 06:52:47;;;;;;;;;22.50;18.75;;;;;;;;3725435;38;21428;-55
2020/10/07 06:55:16;;;;;;;;;19.25;16.25;;;;;;;;3724542;37;21420;-56
2020/10/07 06:57:44;;;;;;;;;22.00;18.50;;;;;;;;3725068;38;21377;-56
2020/10/07 07:00:26;;;;;;;;;18.75;17.00;;;;;;;;3725208;38;21432;-57
2020/10/07 07:02:56;;;;;;;;;19.50;17.50;;;;;;;;3725435;37;21467;-58
2020/10/07 07:05:25;;;;;;;;;21.00;17.75;;;;;;;;3725248;37;21404;-55
2020/10/07 07:07:52;;;;;;;;;24.00;19.25;;;;;;;;3725349;37;21421;-56
2020/10/07 07:10:22;;;;;;;;;23.50;18.25;;;;;;;;3725279;37;21428;-56
2020/10/07 07:12:48;;;;;;;;;21.50;18.25;;;;;;;;3725269;38;21440;-56
2020/10/07 07:15:15;;;;;;;;;18.25;16.50;;;;;;;;3725218;38;21398;-57
2020/10/07 07:17:51;;;;;;;;;23.00;19.00;;;;;;;;3725390;37;21375;-56
2020/10/07 07:20:18;;;;;;;;;26.25;20.25;;;;;;;;3725376;37;21373;-56
2020/10/07 07:22:49;;;;;;;;;23.25;18.50;;;;;;;;3724975;38;21369;-56
2020/10/07 07:25:18;;;;;;;;;18.50;16.75;;;;;;;;3724726;37;21407;-55
2020/10/07 07:27:53;;;;;;;;;20.50;17.75;;;;;;;;3725283;38;21375;-57
2020/10/07 07:30:29;;;;;;;;;21.00;17.75;;;;;;;;3725316;37;21406;-55
2020/10/07 07:33:06;;;;;;;;;17.75;17.25;;;;;;;;3725244;38;21375;-56
2020/10/07 07:35:34;;;;;;;;;18.75;18.00;;;;;;;;3725153;37;21336;-57
2020/10/07 07:38:22;;;;;;;;;23.50;21.25;;;;;;;;3725233;37;21371;-57
2020/10/07 07:41:26;;;;;;;;;19.50;18.75;;;;;;;;3724900;37;21333;-56
2020/10/07 07:43:56;;;;;;;;;17.25;16.00;;;;;;;;3725202;37;21386;-53
2020/10/07 07:46:48;;;;;;;;;22.50;18.50;;;;;;;;3725478;38;21346;-54
2020/10/07 07:49:19;;;;;;;;;23.50;20.25;;;;;;;;3725288;38;21349;-55
2020/10/07 07:51:46;;;;;;;;;20.75;17.25;;;;;;;;3725285;37;21346;-54
2020/10/07 07:54:13;;;;;;;;;17.50;16.00;;;;;;;;3725333;37;21279;-55
2020/10/07 07:56:42;;;;;;;;;17.75;16.25;;;;;;;;3725314;38;21352;-54
2020/10/07 07:59:09;;;;;;;;;20.25;16.25;;;;;;;;3724901;37;21345;-56
2020/10/07 08:01:36;;;;;;;;;21.75;16.75;;;;;;;;3725169;38;21014;-60
2020/10/07 08:04:06;;;;;;;;;18.00;16.25;;;;;;;;3725310;38;21267;-58
2020/10/07 08:06:34;;;;;;;;;24.50;18.75;;;;;;;;3725405;37;21309;-63
2020/10/07 08:09:00;;;;;;;;;20.75;16.50;;;;;;;;3725075;37;21322;-55
2020/10/07 08:11:26;;;;;;;;;16.50;15.00;;;;;;;;3724846;38;21323;-59
2020/10/07 08:13:53;;;;;;;;;22.25;18.75;;;;;;;;3725032;38;18288;-54
2020/10/07 08:16:20;;;;;;;;;23.75;18.00;;;;;;;;3725056;37;18274;-59
2020/10/07 08:18:46;;;;;;;;;21.00;16.75;;;;;;;;3725246;38;21348;-57
2020/10/07 08:21:13;;;;;;;;;18.00;15.75;;;;;;;;3725394;37;21313;-56
2020/10/07 08:23:40;;;;;;;;;21.75;20.00;;;;;;;;3725462;38;21318;-56
2020/10/07 08:26:08;;;;;;;;;30.50;22.75;;;;;;;;3725709;37;21318;-57
2020/10/07 08:28:39;;;;;;;;;27.25;21.25;;;;;;;;3724853;38;21316;-55
2020/10/07 08:31:07;;;;;;;;;27.50;21.00;;;;;;;;3725192;37;21373;-60
2020/10/07 08:33:33;;;;;;;;;21.50;15.25;;;;;;;;3725172;38;21309;-56
2020/10/07 08:35:59;;;;;;;;;21.50;18.75;;;;;;;;3725269;37;21303;-57
2020/10/07 08:38:25;;;;;;;;;25.00;18.25;;;;;;;;3729340;38;18259;-57
2020/10/07 08:40:52;;;;;;;;;21.00;17.25;;;;;;;;3733703;38;18241;-57
2020/10/07 08:43:22;;;;;;;;;20.75;15.50;;;;;;;;3725293;37;21397;-56
2020/10/07 08:45:47;;;;;;;;;46.25;32.00;;;;;;;;3725176;38;21320;-56
2020/10/07 08:48:14;;;;;;;;;39.25;31.50;;;;;;;;3725225;37;21316;-56
2020/10/07 08:50:41;;;;;;;;;29.00;24.75;;;;;;;;3725310;37;18233;-57
2020/10/07 08:53:07;;;;;;;;;37.50;29.00;;;;;;;;3725190;37;21228;-55
2020/10/07 08:55:34;;;;;;;;;31.50;22.75;;;;;;;;3725324;38;21211;-55
2020/10/07 08:58:01;;;;;;;;;24.00;19.50;;;;;;;;3725323;37;21235;-55
2020/10/07 09:00:28;;;;;;;;;29.25;23.25;;;;;;;;3725172;37;18220;-55
2020/10/07 09:02:54;;;;;;;;;27.00;23.00;;;;;;;;3725412;38;21273;-56
2020/10/07 09:05:20;;;;;;;;;30.50;23.00;;;;;;;;3725184;38;21261;-58
2020/10/07 09:07:47;;;;;;;;;36.50;25.00;;;;;;;;3725302;38;21272;-56
2020/10/07 09:10:14;;;;;;;;;31.00;22.75;;;;;;;;3725234;37;21225;-56
2020/10/07 09:12:43;;;;;;;;;23.50;18.75;;;;;;;;3725289;38;18217;-57
2020/10/07 09:15:11;;;;;;;;;26.00;21.50;;;;;;;;3724981;38;21246;-56
2020/10/07 09:17:47;;;;;;;;;27.25;20.75;;;;;;;;3725185;37;21274;-57
2020/10/07 09:20:19;;;;;;;;;26.00;20.75;;;;;;;;3725321;38;21251;-58
2020/10/07 09:22:50;;;;;;;;;26.75;21.00;;;;;;;;3725283;38;21218;-57
2020/10/07 09:25:22;;;;;;;;;23.25;21.50;;;;;;;;3725201;37;21134;-57
2020/10/07 09:27:48;;;;;;;;;24.75;21.50;;;;;;;;3725298;37;21239;-56
2020/10/07 09:30:15;;;;;;;;;25.50;22.50;;;;;;;;3724992;38;21185;-56
2020/10/07 09:32:45;;;;;;;;;18.00;17.00;;;;;;;;3724899;38;18203;-57
2020/10/07 09:35:17;;;;;;;;;24.75;22.50;;;;;;;;3724858;37;21251;-56
2020/10/07 09:37:45;;;;;;;;;24.00;20.75;;;;;;;;3725351;37;21183;-56
2020/10/07 09:40:13;;;;;;;;;21.50;19.00;;;;;;;;3725260;37;21214;-56
2020/10/07 09:42:54;;;;;;;;;21.25;20.00;;;;;;;;3725274;37;21228;-59
2020/10/07 09:45:20;;;;;;;;;18.25;15.75;;;;;;;;3725459;38;21226;-57
2020/10/07 09:47:46;;;;;;;;;25.00;20.75;;;;;;;;3725258;38;21182;-58
2020/10/07 09:50:14;;;;;;;;;20.50;15.00;;;;;;;;3725273;37;21228;-58
2020/10/07 09:52:42;;;;;;;;;19.50;17.25;;;;;;;;3725498;37;18174;-58
2020/10/07 09:55:10;;;;;;;;;20.75;18.25;;;;;;;;3725240;37;21166;-57
2020/10/07 09:57:36;;;;;;;;;20.00;17.00;;;;;;;;3725337;38;21185;-57
2020/10/07 10:00:03;;;;;;;;;20.00;18.00;;;;;;;;3725202;37;21161;-55
2020/10/07 10:02:30;;;;;;;;;17.75;16.00;;;;;;;;3725297;37;21190;-57
2020/10/07 10:04:57;;;;;;;;;16.75;14.50;;;;;;;;3725205;38;21148;-56
2020/10/07 10:07:23;;;;;;;;;18.75;15.75;;;;;;;;3725223;37;21179;-56
2020/10/07 10:09:50;;;;;;;;;18.00;16.25;;;;;;;;3725171;37;21148;-57
2020/10/07 10:12:17;;;;;;;;;19.75;18.00;;;;;;;;3725708;37;18086;-60
2020/10/07 10:14:44;;;;;;;;;18.25;15.00;;;;;;;;3725514;37;20653;-58
2020/10/07 10:17:11;;;;;;;;;16.25;13.50;;;;;;;;3725537;38;20643;-58
2020/10/07 10:19:39;;;;;;;;;15.50;13.00;;;;;;;;3725389;37;20649;-63
2020/10/07 10:22:07;;;;;;;;;16.25;14.00;;;;;;;;3725552;38;20627;-58
2020/10/07 10:24:33;;;;;;;;;18.75;13.75;;;;;;;;3725389;37;20611;-56
2020/10/07 10:27:00;;;;;;;;;18.00;15.50;;;;;;;;3725494;37;20699;-56
2020/10/07 10:29:26;;;;;;;;;15.50;13.50;;;;;;;;3725443;38;20617;-55
2020/10/07 10:31:52;;;;;;;;;12.00;11.75;;;;;;;;3725549;38;20623;-55
2020/10/07 10:34:18;;;;;;;;;14.75;12.75;;;;;;;;3725562;37;18046;-54
2020/10/07 10:36:44;;;;;;;;;18.25;15.75;;;;;;;;3725602;37;18030;-55
2020/10/07 10:39:10;;;;;;;;;14.75;13.00;;;;;;;;3725510;37;18022;-55
2020/10/07 10:41:37;;;;;;;;;13.75;12.00;;;;;;;;3725442;37;18024;-58
2020/10/07 10:44:03;;;;;;;;;13.25;12.50;;;;;;;;3725405;38;20585;-55
2020/10/07 10:46:30;;;;;;;;;15.00;13.25;;;;;;;;3725705;37;20609;-56
2020/10/07 10:48:56;;;;;;;;;15.75;12.50;;;;;;;;3725652;37;20579;-55
2020/10/07 10:51:28;;;;;;;;;15.25;11.00;;;;;;;;3726248;37;20616;-56
2020/10/07 10:53:54;;;;;;;;;11.25;11.00;;;;;;;;3726661;37;20578;-58
2020/10/07 10:56:22;;;;;;;;;12.25;11.25;;;;;;;;3728830;38;20547;-56
2020/10/07 10:58:52;;;;;;;;;14.50;12.75;;;;;;;;3733408;37;20623;-57
2020/10/07 11:01:19;;;;;;;;;13.25;13.25;;;;;;;;3729652;37;20853;-57
2020/10/07 11:03:45;;;;;;;;;13.75;12.50;;;;;;;;3725244;38;20594;-57
2020/10/07 11:06:12;;;;;;;;;11.00;10.25;;;;;;;;3725529;37;20574;-55
2020/10/07 11:08:38;;;;;;;;;12.50;10.75;;;;;;;;3725799;38;20508;-58
2020/10/07 11:11:05;;;;;;;;;11.25;11.00;;;;;;;;3725272;38;20539;-54
2020/10/07 11:13:31;;;;;;;;;16.25;12.00;;;;;;;;3725370;37;18036;-54
2020/10/07 11:15:57;;;;;;;;;11.00;10.25;;;;;;;;3725329;37;21019;-55
2020/10/07 11:18:24;;;;;;;;;14.50;13.75;;;;;;;;3725237;37;18023;-54
2020/10/07 11:20:52;;;;;;;;;13.00;11.25;;;;;;;;3725255;37;21072;-56
2020/10/07 11:23:19;;;;;;;;;15.00;11.00;;;;;;;;3725294;38;21024;-53
2020/10/07 11:25:46;;;;;;;;;12.50;11.25;;;;;;;;3725213;37;18043;-55
2020/10/07 11:28:12;;;;;;;;;15.00;12.00;;;;;;;;3725349;38;21014;-55
2020/10/07 11:30:38;;;;;;;;;11.25;10.75;;;;;;;;3725298;37;21061;-57
2020/10/07 11:33:05;;;;;;;;;14.25;12.25;;;;;;;;3725416;37;18011;-54
2020/10/07 11:35:31;;;;;;;;;16.25;14.00;;;;;;;;3723896;37;20986;-54
2020/10/07 11:37:57;;;;;;;;;17.75;13.25;;;;;;;;3724986;37;18016;-55
2020/10/07 11:40:23;;;;;;;;;14.50;12.75;;;;;;;;3725072;38;21049;-53
2020/10/07 11:42:49;;;;;;;;;10.50;10.00;;;;;;;;3725345;38;17999;-54
2020/10/07 11:45:15;;;;;;;;;14.25;11.00;;;;;;;;3725232;38;21032;-54
2020/10/07 11:47:42;;;;;;;;;12.75;11.50;;;;;;;;3725210;38;18009;-54
2020/10/07 11:50:15;;;;;;;;;14.25;13.00;;;;;;;;3725251;38;20972;-55
2020/10/07 11:52:42;;;;;;;;;15.50;13.00;;;;;;;;3725363;38;21006;-55
2020/10/07 11:55:08;;;;;;;;;14.75;13.75;;;;;;;;3725152;37;20984;-53
2020/10/07 11:57:44;;;;;;;;;17.25;12.00;;;;;;;;3725114;37;21007;-53
2020/10/07 12:00:14;;;;;;;;;15.75;13.75;;;;;;;;3725144;37;21021;-54
2020/10/07 12:02:40;;;;;;;;;13.00;11.75;;;;;;;;3725364;38;21049;-55
2020/10/07 12:05:06;;;;;;;;;14.50;12.50;;;;;;;;3724515;37;20977;-55
2020/10/07 12:07:32;;;;;;;;;15.00;12.00;;;;;;;;3725119;38;17960;-54
2020/10/07 12:09:58;;;;;;;;;12.00;11.00;;;;;;;;3725074;37;17961;-56
2020/10/07 12:12:50;;;;;;;;;12.25;11.25;;;;;;;;3725188;37;17951;-64
2020/10/07 12:15:27;;;;;;;;;15.25;13.25;;;;;;;;3725217;37;21047;-54
2020/10/07 12:17:53;;;;;;;;;13.00;12.00;;;;;;;;3725176;38;20955;-56
2020/10/07 12:20:20;;;;;;;;;14.75;13.75;;;;;;;;3725199;37;21001;-55
2020/10/07 12:22:47;;;;;;;;;16.75;14.25;;;;;;;;3725268;38;20965;-57
2020/10/07 12:25:38;;;;;;;;;9.75;8.00;;;;;;;;3724861;37;17985;-54
2020/10/07 12:28:04;;;;;;;;;12.50;11.25;;;;;;;;3725306;38;20885;-54
2020/10/07 12:30:30;;;;;;;;;10.75;10.50;;;;;;;;3725086;37;20965;-56
2020/10/07 12:32:57;;;;;;;;;14.00;11.00;;;;;;;;3725159;37;20955;-56
2020/10/07 12:35:23;;;;;;;;;14.00;9.75;;;;;;;;3724994;37;20910;-56
2020/10/07 12:37:49;;;;;;;;;13.00;11.75;;;;;;;;3725226;37;20951;-55
2020/10/07 12:40:16;;;;;;;;;11.25;10.00;;;;;;;;3725192;37;20974;-55
2020/10/07 12:42:42;;;;;;;;;14.00;11.25;;;;;;;;3725293;38;17918;-55
2020/10/07 12:45:11;;;;;;;;;14.25;12.00;;;;;;;;3725291;37;20905;-56
2020/10/07 12:47:39;;;;;;;;;10.00;9.75;;;;;;;;3726110;37;17935;-55
2020/10/07 12:50:06;;;;;;;;;11.50;9.00;;;;;;;;3725370;37;20906;-57
2020/10/07 12:52:32;;;;;;;;;16.25;12.50;;;;;;;;3725183;37;20914;-55
2020/10/07 12:54:59;;;;;;;;;8.75;7.00;;;;;;;;3724717;38;20885;-56
2020/10/07 12:57:25;;;;;;;;;10.50;8.75;;;;;;;;3725060;37;20811;-55
2020/10/07 12:59:51;;;;;;;;;9.75;9.00;;;;;;;;3725113;38;20803;-54
2020/10/07 13:02:18;;;;;;;;;10.50;9.00;;;;;;;;3725278;37;20781;-56
2020/10/07 13:04:44;;;;;;;;;13.50;10.75;;;;;;;;3725344;38;20906;-54
2020/10/07 13:07:11;;;;;;;;;13.25;11.00;;;;;;;;3726737;37;17906;-55
2020/10/07 13:09:37;;;;;;;;;10.75;9.00;;;;;;;;3724827;37;20955;-54
2020/10/07 13:12:10;;;;;;;;;15.00;10.75;;;;;;;;3725176;38;21011;-54
2020/10/07 13:14:37;;;;;;;;;11.25;7.25;;;;;;;;3725325;38;21071;-57
2020/10/07 13:17:06;;;;;;;;;14.50;10.50;;;;;;;;3725321;37;21009;-57
2020/10/07 13:19:32;;;;;;;;;9.25;9.25;;;;;;;;3725222;37;17906;-55
2020/10/07 13:22:02;;;;;;;;;11.25;9.50;;;;;;;;3725191;38;20875;-53
2020/10/07 13:24:28;;;;;;;;;11.75;10.25;;;;;;;;3724907;38;17896;-56
2020/10/07 13:26:54;;;;;;;;;11.50;9.25;;;;;;;;3725203;38;20869;-57
2020/10/07 13:29:21;;;;;;;;;14.25;10.00;;;;;;;;3725166;37;21072;-56
2020/10/07 13:31:47;;;;;;;;;13.00;11.00;;;;;;;;3725194;38;21047;-57
2020/10/07 13:34:13;;;;;;;;;8.75;7.75;;;;;;;;3725117;37;20871;-55
2020/10/07 13:36:39;;;;;;;;;11.50;9.50;;;;;;;;3725384;37;17850;-58
2020/10/07 13:39:17;;;;;;;;;9.00;8.00;;;;;;;;3725012;38;20890;-55
2020/10/07 13:41:44;;;;;;;;;8.50;8.25;;;;;;;;3724921;37;17838;-62
2020/10/07 13:44:11;;;;;;;;;13.00;10.25;;;;;;;;3725149;38;20749;-56
2020/10/07 13:46:37;;;;;;;;;10.50;9.00;;;;;;;;3725305;38;20971;-56
2020/10/07 13:49:03;;;;;;;;;11.75;9.25;;;;;;;;3725168;37;20865;-55
2020/10/07 13:51:29;;;;;;;;;8.25;7.00;;;;;;;;3725464;38;17830;-56
2020/10/07 13:53:55;;;;;;;;;9.00;9.00;;;;;;;;3725282;37;17829;-56
2020/10/07 13:56:21;;;;;;;;;10.50;10.00;;;;;;;;3725092;37;17864;-57
2020/10/07 13:58:47;;;;;;;;;8.25;7.25;;;;;;;;3724820;38;20850;-57
2020/10/07 14:01:14;;;;;;;;;11.25;9.00;;;;;;;;3725126;37;20920;-56
2020/10/07 14:03:40;;;;;;;;;11.00;10.00;;;;;;;;3725159;37;17820;-59
2020/10/07 14:06:07;;;;;;;;;9.50;8.25;;;;;;;;3725059;37;20940;-62
2020/10/07 14:08:34;;;;;;;;;10.00;9.00;;;;;;;;3725101;38;20944;-57
2020/10/07 14:11:12;;;;;;;;;8.75;7.25;;;;;;;;3725204;38;20926;-65
2020/10/07 14:13:44;;;;;;;;;13.00;11.00;;;;;;;;3725262;38;20699;-56
2020/10/07 14:16:16;;;;;;;;;11.50;10.25;;;;;;;;3724951;37;20986;-60
2020/10/07 14:18:42;;;;;;;;;12.50;9.00;;;;;;;;3725164;37;20983;-57
2020/10/07 14:21:09;;;;;;;;;14.00;9.00;;;;;;;;3723980;38;20937;-58
2020/10/07 14:23:38;;;;;;;;;10.00;8.00;;;;;;;;3724624;37;20915;-58
2020/10/07 14:26:04;;;;;;;;;11.00;10.00;;;;;;;;3724611;37;17782;-55
2020/10/07 14:28:30;;;;;;;;;13.25;11.00;;;;;;;;3724765;37;20974;-56
2020/10/07 14:30:55;;;;;;;;;13.00;11.75;;;;;;;;3725198;37;17803;-55
2020/10/07 14:33:21;;;;;;;;;13.25;9.25;;;;;;;;3725118;38;17806;-54
2020/10/07 14:35:47;;;;;;;;;10.50;9.50;;;;;;;;3724922;37;17765;-56
2020/10/07 14:38:14;;;;;;;;;10.25;9.00;;;;;;;;3725111;38;17767;-56
2020/10/07 14:40:40;;;;;;;;;10.75;9.75;;;;;;;;3725046;38;20799;-56